Time;durP1;ratioP1;P1;durP2;ratioP2;P2;SDS_P1;SDS_P2;PMS_P1;PMS_P2;Temp;Humidity;BMP_temperature;BMP_pressure;BME280_temperature;BME280_humidity;BME280_pressure;Samples;Min_cycle;Max_cycle;Signal;HPM_P1;HPM_P2
2023/09/13 00:01:36;;;;;;;6.90;2.60;;;10.20;99.90;;;;;;5108395;28;20062;-58
2023/09/13 00:04:04;;;;;;;10.05;2.78;;;10.20;99.90;;;;;;5113951;28;20050;-59
2023/09/13 00:06:32;;;;;;;9.05;2.88;;;10.20;99.90;;;;;;5127478;28;20058;-59
2023/09/13 00:09:00;;;;;;;14.73;3.58;;;10.20;99.90;;;;;;5107689;28;20043;-59
2023/09/13 00:11:28;;;;;;;8.63;2.92;;;10.20;99.90;;;;;;5087683;28;20052;-59
2023/09/13 00:13:55;;;;;;;6.07;2.97;;;10.10;99.90;;;;;;5102958;28;20058;-58
2023/09/13 00:16:23;;;;;;;9.50;3.40;;;10.10;99.90;;;;;;5108168;28;20051;-58
2023/09/13 00:18:54;;;;;;;5.53;3.03;;;10.10;99.90;;;;;;5112911;28;20430;-59
2023/09/13 00:21:21;;;;;;;13.85;3.80;;;10.10;99.90;;;;;;5104200;28;20541;-58
2023/09/13 00:23:49;;;;;;;7.45;3.10;;;10.10;99.90;;;;;;5106215;28;20040;-58
2023/09/13 00:26:17;;;;;;;7.85;3.58;;;10.10;99.90;;;;;;5090063;28;20052;-59
2023/09/13 00:28:50;;;;;;;9.60;3.55;;;10.10;99.90;;;;;;5103617;28;20063;-58
2023/09/13 00:31:19;;;;;;;7.10;3.50;;;10.10;99.90;;;;;;5086577;28;20052;-58
2023/09/13 00:33:46;;;;;;;8.48;3.33;;;10.00;99.90;;;;;;5100002;28;20054;-59
2023/09/13 00:36:14;;;;;;;4.28;2.92;;;10.00;99.90;;;;;;5106711;28;20047;-58
2023/09/13 00:38:42;;;;;;;6.10;3.47;;;10.00;99.90;;;;;;5106702;28;20046;-58
2023/09/13 00:41:10;;;;;;;10.85;3.00;;;10.00;99.90;;;;;;5091965;28;20491;-58
2023/09/13 00:43:37;;;;;;;10.55;3.53;;;10.00;99.90;;;;;;5097517;28;20051;-59
2023/09/13 00:46:05;;;;;;;8.73;3.28;;;9.90;99.90;;;;;;5112229;28;20074;-58
2023/09/13 00:48:35;;;;;;;9.38;3.30;;;9.90;99.90;;;;;;5114804;27;20054;-58
2023/09/13 00:51:03;;;;;;;8.77;3.42;;;9.90;99.90;;;;;;5109776;28;20050;-58
2023/09/13 00:53:32;;;;;;;6.47;3.60;;;9.90;99.90;;;;;;5117605;27;20047;-59
2023/09/13 00:56:00;;;;;;;14.48;3.97;;;9.80;99.90;;;;;;5102173;27;20506;-58
2023/09/13 00:58:30;;;;;;;6.75;3.42;;;9.80;99.90;;;;;;5118510;27;20063;-59
2023/09/13 01:00:58;;;;;;;6.97;3.55;;;9.80;99.90;;;;;;5107252;28;20054;-58
2023/09/13 01:03:27;;;;;;;9.77;3.95;;;9.70;99.90;;;;;;5108109;28;20047;-58
2023/09/13 01:05:55;;;;;;;10.32;3.55;;;9.70;99.90;;;;;;5106049;28;20052;-58
2023/09/13 01:08:23;;;;;;;10.13;4.10;;;9.70;99.90;;;;;;5107079;28;20047;-58
2023/09/13 01:10:51;;;;;;;12.00;3.25;;;9.70;99.90;;;;;;5096888;27;20044;-59
2023/09/13 01:13:19;;;;;;;7.00;2.97;;;9.60;99.90;;;;;;5096010;28;20056;-59
2023/09/13 01:16:09;;;;;;;7.78;3.05;;;9.60;99.90;;;;;;5106029;28;20055;-59
2023/09/13 01:18:53;;;;;;;10.90;3.97;;;9.60;99.90;;;;;;5093736;27;20059;-59
2023/09/13 01:22:03;;;;;;;6.60;2.80;;;9.60;99.90;;;;;;5087615;28;20055;-58
2023/09/13 01:25:03;;;;;;;9.75;3.05;;;9.50;99.90;;;;;;5101429;28;20056;-59
2023/09/13 01:27:48;;;;;;;8.85;2.90;;;9.50;99.90;;;;;;5083347;27;20059;-58
2023/09/13 01:30:17;;;;;;;7.97;3.42;;;9.50;99.90;;;;;;5086989;28;20270;-58
2023/09/13 01:32:47;;;;;;;6.40;2.92;;;9.50;99.90;;;;;;5108796;27;20035;-59
2023/09/13 01:35:14;;;;;;;7.40;2.85;;;9.40;99.90;;;;;;5107406;28;20047;-58
2023/09/13 01:37:42;;;;;;;7.57;3.10;;;9.40;99.90;;;;;;5109998;28;20048;-58
2023/09/13 01:40:10;;;;;;;10.00;2.92;;;9.40;99.90;;;;;;5109306;28;20509;-58
2023/09/13 01:42:39;;;;;;;7.45;2.80;;;9.40;99.90;;;;;;5109284;28;20040;-59
2023/09/13 01:45:11;;;;;;;9.98;2.83;;;9.40;99.90;;;;;;5092136;28;20212;-58
2023/09/13 01:47:42;;;;;;;12.68;3.20;;;9.40;99.90;;;;;;5090819;27;20038;-59
2023/09/13 01:50:11;;;;;;;11.45;2.85;;;9.40;99.90;;;;;;5110226;28;20410;-59
2023/09/13 01:52:40;;;;;;;8.75;2.97;;;9.40;99.90;;;;;;5109676;28;20051;-58
2023/09/13 01:55:08;;;;;;;8.43;2.75;;;9.30;99.90;;;;;;5109330;28;20047;-58
2023/09/13 01:57:36;;;;;;;17.45;3.38;;;9.30;99.90;;;;;;5115560;27;20047;-59
2023/09/13 02:00:05;;;;;;;7.65;3.03;;;9.30;99.90;;;;;;5087898;28;20055;-59
2023/09/13 02:02:38;;;;;;;9.40;3.50;;;9.30;99.90;;;;;;5094774;28;20040;-59
2023/09/13 02:05:06;;;;;;;11.35;3.47;;;9.30;99.90;;;;;;5088831;28;20036;-58
2023/09/13 02:07:34;;;;;;;12.38;2.70;;;9.20;99.90;;;;;;5089640;28;20048;-59
2023/09/13 02:10:02;;;;;;;12.20;2.60;;;9.20;99.90;;;;;;5088664;28;20115;-58
2023/09/13 02:12:30;;;;;;;8.32;2.33;;;9.20;99.90;;;;;;5091289;28;20068;-58
2023/09/13 02:14:58;;;;;;;7.30;2.55;;;9.20;99.90;;;;;;5107777;27;20178;-58
2023/09/13 02:17:28;;;;;;;8.73;2.83;;;9.20;99.90;;;;;;5088650;27;20051;-58
2023/09/13 02:19:57;;;;;;;9.00;2.67;;;9.20;99.90;;;;;;5109121;27;20047;-59
2023/09/13 02:22:24;;;;;;;7.25;2.50;;;9.20;99.90;;;;;;5109984;28;20035;-58
2023/09/13 02:24:52;;;;;;;12.45;2.70;;;9.10;99.90;;;;;;5109158;28;20046;-59
2023/09/13 02:27:20;;;;;;;6.75;2.17;;;9.10;99.90;;;;;;5105959;27;20058;-58
2023/09/13 02:29:48;;;;;;;12.57;2.47;;;9.10;99.90;;;;;;5092702;27;20047;-58
2023/09/13 02:32:15;;;;;;;5.40;2.15;;;9.10;99.90;;;;;;5089503;28;20036;-58
2023/09/13 02:34:44;;;;;;;17.75;2.47;;;9.10;99.90;;;;;;5107030;28;20486;-59
2023/09/13 02:37:12;;;;;;;8.05;2.17;;;9.00;99.90;;;;;;5108551;28;20043;-58
2023/09/13 02:39:42;;;;;;;7.05;2.08;;;9.00;99.90;;;;;;5107557;28;20121;-59
2023/09/13 02:42:10;;;;;;;5.35;2.42;;;9.00;99.90;;;;;;5106406;28;20658;-58
2023/09/13 02:44:39;;;;;;;5.30;2.38;;;9.00;99.90;;;;;;5103913;28;20042;-58
2023/09/13 02:47:09;;;;;;;7.50;2.40;;;8.90;99.90;;;;;;5109176;27;20635;-58
2023/09/13 02:49:37;;;;;;;6.57;2.10;;;8.90;99.90;;;;;;5102094;27;20046;-58
2023/09/13 02:52:05;;;;;;;13.75;2.80;;;8.90;99.90;;;;;;5107591;28;20054;-58
2023/09/13 02:54:32;;;;;;;8.35;2.10;;;8.90;99.90;;;;;;5094357;28;20055;-58
2023/09/13 02:57:00;;;;;;;3.97;1.73;;;8.90;99.90;;;;;;5097909;27;20054;-58
2023/09/13 02:59:31;;;;;;;5.85;1.80;;;8.80;99.90;;;;;;5111285;27;20047;-58
2023/09/13 03:01:59;;;;;;;7.78;2.85;;;8.80;99.90;;;;;;5109337;28;20491;-58
2023/09/13 03:04:28;;;;;;;9.43;2.67;;;8.80;99.90;;;;;;5107748;28;20035;-59
2023/09/13 03:06:55;;;;;;;7.55;2.85;;;8.80;99.90;;;;;;5108200;28;20487;-61
2023/09/13 03:09:23;;;;;;;6.85;3.10;;;8.70;99.90;;;;;;5107655;28;20047;-59
2023/09/13 03:11:51;;;;;;;6.47;2.63;;;8.70;99.90;;;;;;5107879;28;20055;-58
2023/09/13 03:14:18;;;;;;;15.35;3.55;;;8.70;99.90;;;;;;5107495;28;20502;-58
2023/09/13 03:16:47;;;;;;;9.90;2.80;;;8.70;99.90;;;;;;5108447;28;20040;-59
2023/09/13 03:19:15;;;;;;;10.00;3.38;;;8.70;99.90;;;;;;5104367;27;20055;-59
2023/09/13 03:21:46;;;;;;;7.13;2.90;;;8.70;99.90;;;;;;5107299;28;20651;-58
2023/09/13 03:24:14;;;;;;;12.57;2.95;;;8.60;99.90;;;;;;5091984;28;20031;-58
2023/09/13 03:26:45;;;;;;;16.02;3.47;;;8.60;99.90;;;;;;5097434;27;20402;-58
2023/09/13 03:29:13;;;;;;;5.80;3.25;;;8.60;99.90;;;;;;5132581;27;20039;-58
2023/09/13 03:31:41;;;;;;;7.15;3.50;;;8.60;99.90;;;;;;5119001;27;20550;-58
2023/09/13 03:34:12;;;;;;;5.90;3.42;;;8.60;99.90;;;;;;5110991;28;20422;-58
2023/09/13 03:36:40;;;;;;;9.93;3.47;;;8.60;99.90;;;;;;5110856;28;20051;-58
2023/09/13 03:39:09;;;;;;;11.25;3.83;;;8.60;99.90;;;;;;5112034;28;20050;-58
2023/09/13 03:41:37;;;;;;;10.15;3.50;;;8.50;99.90;;;;;;5122215;27;20043;-58
2023/09/13 03:44:06;;;;;;;7.80;3.53;;;8.60;99.90;;;;;;5114558;27;20052;-58
2023/09/13 03:46:34;;;;;;;6.85;3.00;;;8.50;99.90;;;;;;5097679;28;20032;-57
2023/09/13 03:49:02;;;;;;;9.63;3.22;;;8.50;99.90;;;;;;5109705;28;20403;-58
2023/09/13 03:51:30;;;;;;;6.20;3.08;;;8.40;99.90;;;;;;5110901;28;20047;-59
2023/09/13 03:53:58;;;;;;;7.63;3.00;;;8.40;99.90;;;;;;5111859;28;20055;-59
2023/09/13 03:56:26;;;;;;;9.10;3.22;;;8.40;99.90;;;;;;5110405;28;20051;-58
2023/09/13 03:58:55;;;;;;;9.13;3.13;;;8.40;99.90;;;;;;5110401;28;20044;-58
2023/09/13 04:01:24;;;;;;;8.80;3.42;;;8.40;99.90;;;;;;5109642;28;20043;-58
2023/09/13 04:03:52;;;;;;;6.45;2.90;;;8.40;99.90;;;;;;5111047;28;20168;-58
2023/09/13 04:06:19;;;;;;;10.13;3.90;;;8.40;99.90;;;;;;5097979;28;20429;-58
2023/09/13 04:08:47;;;;;;;6.47;2.88;;;8.40;99.90;;;;;;5111760;28;20502;-58
2023/09/13 04:11:15;;;;;;;11.88;2.92;;;8.30;99.90;;;;;;5109659;28;20419;-58
2023/09/13 04:13:42;;;;;;;11.35;3.28;;;8.30;99.90;;;;;;5110640;28;20046;-58
2023/09/13 04:16:14;;;;;;;12.05;2.70;;;8.30;99.90;;;;;;5109712;28;20052;-58
2023/09/13 04:18:42;;;;;;;11.85;2.80;;;8.30;99.90;;;;;;5113390;27;20039;-58
2023/09/13 04:21:09;;;;;;;7.28;3.10;;;8.30;99.90;;;;;;5110806;28;20054;-58
2023/09/13 04:23:37;;;;;;;10.15;2.95;;;8.20;99.90;;;;;;5115391;28;20063;-58
2023/09/13 04:26:05;;;;;;;10.10;3.47;;;8.30;99.90;;;;;;5114551;28;20038;-57
2023/09/13 04:28:33;;;;;;;7.20;2.97;;;8.20;99.90;;;;;;5131974;27;20048;-57
2023/09/13 04:31:02;;;;;;;12.73;3.15;;;8.20;99.90;;;;;;5106991;27;20036;-57
2023/09/13 04:33:48;;;;;;;9.07;2.88;;;8.20;99.90;;;;;;5093795;28;20075;-57
2023/09/13 04:36:19;;;;;;;11.30;3.03;;;8.20;99.90;;;;;;5101002;28;20117;-57
2023/09/13 04:38:48;;;;;;;7.03;2.70;;;8.20;99.90;;;;;;5114420;28;20485;-57
2023/09/13 04:41:16;;;;;;;7.45;3.53;;;8.10;99.90;;;;;;5114300;28;20043;-57
2023/09/13 04:43:44;;;;;;;7.63;2.80;;;8.10;99.90;;;;;;5080290;28;20051;-56
2023/09/13 04:46:14;;;;;;;6.57;3.40;;;8.10;99.90;;;;;;5114195;28;20499;-57
2023/09/13 04:48:44;;;;;;;8.30;2.90;;;8.10;99.90;;;;;;5106231;27;20058;-57
2023/09/13 04:51:11;;;;;;;8.98;2.70;;;8.10;99.90;;;;;;5111843;28;20035;-57
2023/09/13 04:53:40;;;;;;;7.25;3.20;;;8.10;99.90;;;;;;5093834;28;20067;-56
2023/09/13 04:56:08;;;;;;;9.75;3.20;;;8.10;99.90;;;;;;5095994;28;20044;-57
2023/09/13 04:58:41;;;;;;;6.75;3.38;;;8.10;99.90;;;;;;5108712;27;20039;-57
2023/09/13 05:01:09;;;;;;;9.85;2.97;;;8.10;99.90;;;;;;5102179;28;20050;-57
2023/09/13 05:03:37;;;;;;;9.13;2.58;;;8.10;99.90;;;;;;5088431;27;20044;-57
2023/09/13 05:06:05;;;;;;;7.78;2.58;;;8.10;99.90;;;;;;5088309;28;20036;-61
2023/09/13 05:08:36;;;;;;;7.28;2.40;;;8.10;99.90;;;;;;5102901;28;20040;-57
2023/09/13 05:11:04;;;;;;;8.48;2.67;;;8.10;99.90;;;;;;5109123;28;20055;-57
2023/09/13 05:13:32;;;;;;;8.98;2.88;;;8.00;99.90;;;;;;5115768;28;20046;-57
2023/09/13 05:16:00;;;;;;;6.47;2.58;;;8.00;99.90;;;;;;5123225;28;20350;-57
2023/09/13 05:18:28;;;;;;;9.82;2.25;;;8.00;99.90;;;;;;5097525;28;20047;-57
2023/09/13 05:20:56;;;;;;;14.48;3.45;;;8.00;99.90;;;;;;5104248;28;20043;-57
2023/09/13 05:23:24;;;;;;;11.70;2.70;;;8.00;99.90;;;;;;5104090;28;20051;-57
2023/09/13 05:25:55;;;;;;;9.23;2.67;;;8.00;99.90;;;;;;5104971;28;20052;-57
2023/09/13 05:28:24;;;;;;;3.97;2.85;;;8.00;99.90;;;;;;5099799;28;20411;-57
2023/09/13 05:30:54;;;;;;;11.70;3.40;;;8.00;99.90;;;;;;5087911;28;20048;-57
2023/09/13 05:33:25;;;;;;;11.95;3.53;;;8.00;99.90;;;;;;5102133;28;20506;-57
2023/09/13 05:35:53;;;;;;;4.33;2.67;;;7.90;99.90;;;;;;5103813;28;20039;-57
2023/09/13 05:38:21;;;;;;;7.75;2.70;;;8.00;99.90;;;;;;5097173;28;20056;-57
2023/09/13 05:40:48;;;;;;;8.13;3.10;;;7.90;99.90;;;;;;5107004;28;20047;-56
2023/09/13 05:43:16;;;;;;;11.25;3.25;;;8.00;99.90;;;;;;5113931;28;20062;-57
2023/09/13 05:45:44;;;;;;;11.75;3.30;;;8.00;99.90;;;;;;5104596;28;20040;-57
2023/09/13 05:48:12;;;;;;;7.80;3.03;;;8.00;99.90;;;;;;5100479;28;20055;-57
2023/09/13 05:50:40;;;;;;;12.00;2.92;;;8.00;99.90;;;;;;5072520;28;20048;-57
2023/09/13 05:53:07;;;;;;;7.53;3.03;;;8.00;99.90;;;;;;5099796;28;20058;-57
2023/09/13 05:55:36;;;;;;;7.68;3.17;;;8.00;99.90;;;;;;5111329;27;20044;-57
2023/09/13 05:58:03;;;;;;;8.27;3.20;;;8.00;99.90;;;;;;5109958;28;20055;-58
2023/09/13 06:00:31;;;;;;;8.95;2.85;;;8.00;99.90;;;;;;5097431;28;20403;-57
2023/09/13 06:02:59;;;;;;;8.18;3.08;;;8.00;99.90;;;;;;5097636;28;20054;-57
2023/09/13 06:05:27;;;;;;;11.13;3.28;;;8.00;99.90;;;;;;5104334;28;20047;-57
2023/09/13 06:07:55;;;;;;;9.35;3.25;;;8.00;99.90;;;;;;5101301;28;20055;-57
2023/09/13 06:10:22;;;;;;;8.18;3.63;;;7.90;99.90;;;;;;5065561;28;1195068;-57
2023/09/13 06:12:50;;;;;;;7.85;3.25;;;8.00;99.90;;;;;;5107857;27;20044;-57
2023/09/13 06:15:18;;;;;;;8.43;3.08;;;8.00;99.90;;;;;;5110549;28;20054;-57
2023/09/13 06:17:46;;;;;;;12.23;3.80;;;8.00;99.90;;;;;;5090839;28;20052;-57
2023/09/13 06:20:14;;;;;;;5.32;3.22;;;8.00;99.90;;;;;;5107490;28;20043;-58
2023/09/13 06:22:42;;;;;;;7.20;3.33;;;8.00;99.90;;;;;;5107292;27;20040;-57
2023/09/13 06:25:09;;;;;;;11.82;3.65;;;8.10;99.90;;;;;;5110241;28;20368;-58
2023/09/13 06:27:38;;;;;;;9.57;3.58;;;8.10;99.90;;;;;;5111100;27;20050;-57
2023/09/13 06:30:06;;;;;;;13.75;3.28;;;8.10;99.90;;;;;;5105879;28;20044;-58
2023/09/13 06:32:34;;;;;;;7.80;2.83;;;8.10;99.90;;;;;;5112018;27;20055;-57
2023/09/13 06:35:12;;;;;;;12.35;3.10;;;8.20;99.90;;;;;;5087974;28;20051;-57
2023/09/13 06:37:44;;;;;;;8.73;3.13;;;8.20;99.90;;;;;;5106904;28;20051;-57
2023/09/13 06:40:15;;;;;;;12.10;2.97;;;8.30;99.90;;;;;;5100315;28;20395;-57
2023/09/13 06:42:43;;;;;;;13.63;3.28;;;8.30;99.90;;;;;;5094195;27;20422;-58
2023/09/13 06:45:26;;;;;;;10.27;3.83;;;8.30;99.90;;;;;;5099158;28;20052;-57
2023/09/13 06:47:56;;;;;;;9.93;3.30;;;8.40;99.90;;;;;;5104973;28;20047;-57
2023/09/13 06:50:25;;;;;;;12.83;3.80;;;8.40;99.90;;;;;;5089674;28;20533;-57
2023/09/13 06:53:13;;;;;;;7.15;2.83;;;8.50;99.90;;;;;;5097834;28;20044;-57
2023/09/13 06:56:01;;;;;;;11.65;3.08;;;8.60;99.90;;;;;;5109539;28;20043;-58
2023/09/13 06:58:32;;;;;;;8.75;3.25;;;8.60;99.90;;;;;;5113591;27;20068;-59
2023/09/13 07:01:03;;;;;;;15.00;4.20;;;8.70;99.90;;;;;;5108938;28;20047;-57
2023/09/13 07:03:51;;;;;;;11.35;3.85;;;8.80;99.90;;;;;;5105237;27;20522;-57
2023/09/13 07:06:28;;;;;;;12.13;4.50;;;8.90;99.90;;;;;;5085480;28;20399;-57
2023/09/13 07:08:56;;;;;;;8.77;3.70;;;8.90;99.90;;;;;;5104101;28;20073;-57
2023/09/13 07:11:25;;;;;;;12.35;4.93;;;9.00;99.90;;;;;;5102005;28;20055;-57
2023/09/13 07:13:54;;;;;;;10.90;3.95;;;9.10;99.90;;;;;;5114625;27;20043;-57
2023/09/13 07:16:21;;;;;;;8.82;4.28;;;9.20;99.90;;;;;;5120709;27;20055;-57
2023/09/13 07:18:49;;;;;;;12.77;4.45;;;9.30;99.90;;;;;;5102874;27;20079;-57
2023/09/13 07:21:17;;;;;;;10.80;5.22;;;9.30;99.90;;;;;;5089114;28;20056;-57
2023/09/13 07:23:45;;;;;;;18.92;5.32;;;9.40;99.90;;;;;;5103771;28;20044;-58
2023/09/13 07:26:14;;;;;;;15.85;5.60;;;9.50;99.90;;;;;;5105236;28;20399;-58
2023/09/13 07:28:41;;;;;;;14.00;4.80;;;9.50;99.90;;;;;;5113207;27;20055;-58
2023/09/13 07:31:10;;;;;;;15.95;5.40;;;9.60;99.90;;;;;;5109033;28;20036;-58
2023/09/13 07:33:39;;;;;;;20.05;4.65;;;9.70;99.90;;;;;;5106023;28;20498;-58
2023/09/13 07:36:07;;;;;;;17.60;3.78;;;9.80;99.90;;;;;;5088395;28;20036;-57
2023/09/13 07:38:35;;;;;;;11.80;4.68;;;9.90;99.90;;;;;;5101223;28;20058;-57
2023/09/13 07:41:03;;;;;;;12.57;4.35;;;9.90;99.90;;;;;;5108797;28;20040;-58
2023/09/13 07:43:31;;;;;;;13.13;3.97;;;10.00;99.90;;;;;;5105587;28;20134;-58
2023/09/13 07:45:59;;;;;;;14.40;4.00;;;10.10;99.90;;;;;;5108345;28;20062;-58
2023/09/13 07:48:27;;;;;;;12.52;3.67;;;10.20;99.90;;;;;;5081355;28;20389;-57
2023/09/13 07:50:55;;;;;;;6.90;3.50;;;10.40;99.90;;;;;;5088172;28;20584;-58
2023/09/13 07:53:23;;;;;;;8.27;3.83;;;10.40;99.90;;;;;;5100620;28;20036;-58
2023/09/13 07:55:51;;;;;;;10.35;2.95;;;10.50;99.90;;;;;;5108361;28;20047;-58
2023/09/13 07:58:18;;;;;;;13.98;3.00;;;10.60;99.90;;;;;;5107716;28;20406;-58
2023/09/13 08:00:47;;;;;;;5.80;2.50;;;10.70;99.90;;;;;;5108655;28;20055;-58
2023/09/13 08:03:15;;;;;;;9.25;2.95;;;10.80;99.90;;;;;;5113883;28;20047;-58
2023/09/13 08:05:45;;;;;;;7.57;2.60;;;10.80;99.90;;;;;;5091632;28;20055;-58
2023/09/13 08:08:22;;;;;;;12.23;2.80;;;10.90;99.90;;;;;;5107779;28;20046;-58
2023/09/13 08:10:50;;;;;;;6.53;2.10;;;11.10;99.90;;;;;;5124411;28;20048;-58
2023/09/13 08:13:22;;;;;;;9.85;2.47;;;11.10;99.90;;;;;;5105400;28;20475;-58
2023/09/13 08:15:50;;;;;;;5.35;2.10;;;11.20;99.90;;;;;;5108571;28;20052;-58
2023/09/13 08:18:18;;;;;;;10.60;2.63;;;11.30;99.90;;;;;;5108161;28;20511;-59
2023/09/13 08:20:46;;;;;;;9.38;2.70;;;11.40;99.90;;;;;;5092207;28;20419;-59
2023/09/13 08:23:14;;;;;;;6.45;1.90;;;11.50;99.90;;;;;;5115237;28;20039;-58
2023/09/13 08:25:43;;;;;;;9.90;2.22;;;11.60;99.90;;;;;;5127560;28;20051;-58
2023/09/13 08:28:11;;;;;;;6.47;1.73;;;11.70;99.90;;;;;;5118634;28;20827;-58
2023/09/13 08:30:39;;;;;;;8.88;1.77;;;11.80;99.90;;;;;;5094601;28;20046;-58
2023/09/13 08:33:07;;;;;;;9.38;2.08;;;11.90;99.90;;;;;;5096141;28;20510;-58
2023/09/13 08:35:35;;;;;;;8.60;1.55;;;12.00;99.90;;;;;;5092932;28;20044;-58
2023/09/13 08:38:03;;;;;;;8.15;1.20;;;12.10;99.90;;;;;;5105469;28;20040;-58
2023/09/13 08:40:31;;;;;;;8.70;1.50;;;12.20;99.90;;;;;;5107754;28;20048;-58
2023/09/13 08:43:00;;;;;;;4.22;1.77;;;12.30;99.90;;;;;;5108022;28;20047;-58
2023/09/13 08:45:30;;;;;;;8.07;1.27;;;12.40;99.90;;;;;;5095668;28;20388;-58
2023/09/13 08:48:01;;;;;;;9.32;1.80;;;12.60;99.90;;;;;;5094840;28;20419;-58
2023/09/13 08:50:30;;;;;;;8.65;1.48;;;12.70;99.90;;;;;;5098130;28;20044;-58
2023/09/13 08:52:59;;;;;;;6.72;1.30;;;12.80;99.90;;;;;;5104867;28;20048;-58
2023/09/13 08:55:28;;;;;;;5.00;1.13;;;13.00;99.90;;;;;;5104811;28;20043;-58
2023/09/13 08:57:57;;;;;;;6.13;1.40;;;13.00;99.90;;;;;;5111358;28;20055;-58
2023/09/13 09:00:28;;;;;;;12.75;1.30;;;13.20;99.90;;;;;;5107886;28;20043;-58
2023/09/13 09:02:58;;;;;;;3.88;1.05;;;13.30;99.90;;;;;;5107893;28;20620;-58
2023/09/13 09:05:27;;;;;;;6.88;1.20;;;13.40;99.90;;;;;;5101218;27;20411;-58
2023/09/13 09:07:57;;;;;;;4.07;1.27;;;13.50;99.90;;;;;;5098455;28;20043;-58
2023/09/13 09:10:25;;;;;;;5.78;1.60;;;13.60;99.90;;;;;;5111332;28;20060;-58
2023/09/13 09:12:56;;;;;;;4.90;1.30;;;13.70;99.90;;;;;;5115345;27;20047;-58
2023/09/13 09:15:26;;;;;;;9.27;1.52;;;13.90;99.90;;;;;;5125193;27;20532;-59
2023/09/13 09:17:55;;;;;;;7.20;1.20;;;14.00;99.90;;;;;;5110030;28;20495;-58
2023/09/13 09:20:29;;;;;;;9.75;1.75;;;14.20;99.90;;;;;;5101968;28;20084;-58
2023/09/13 09:22:58;;;;;;;4.45;2.03;;;14.30;99.90;;;;;;5102253;27;20509;-58
2023/09/13 09:25:29;;;;;;;4.38;1.40;;;14.40;99.90;;;;;;5125197;27;20050;-58
2023/09/13 09:27:57;;;;;;;3.80;1.30;;;14.50;99.90;;;;;;5114257;27;20039;-58
2023/09/13 09:30:31;;;;;;;7.15;1.88;;;14.60;99.90;;;;;;5110821;28;20511;-58
2023/09/13 09:33:07;;;;;;;5.95;1.55;;;14.60;99.90;;;;;;5106846;28;20418;-58
2023/09/13 09:35:36;;;;;;;4.55;1.23;;;14.60;99.90;;;;;;5102990;27;20047;-58
2023/09/13 09:38:21;;;;;;;4.78;1.33;;;14.70;99.90;;;;;;5110603;28;20395;-58
2023/09/13 09:40:50;;;;;;;7.78;1.60;;;14.80;99.90;;;;;;5110357;28;20050;-58
2023/09/13 09:43:18;;;;;;;5.43;1.52;;;14.80;99.90;;;;;;5115953;27;20039;-57
2023/09/13 09:45:46;;;;;;;5.22;1.60;;;14.80;99.90;;;;;;5108339;27;20071;-58
2023/09/13 09:48:15;;;;;;;4.22;1.40;;;14.80;99.90;;;;;;5110607;28;20054;-58
2023/09/13 09:50:48;;;;;;;6.05;2.00;;;14.80;99.90;;;;;;5097685;27;20040;-58
2023/09/13 09:53:19;;;;;;;7.95;1.85;;;14.80;99.90;;;;;;5113593;27;20042;-60
2023/09/13 09:55:48;;;;;;;8.07;1.88;;;14.80;99.90;;;;;;5109536;28;20044;-58
2023/09/13 09:58:17;;;;;;;4.55;1.60;;;14.90;99.90;;;;;;5114993;27;20066;-59
2023/09/13 10:00:46;;;;;;;7.75;2.45;;;15.00;99.90;;;;;;5107631;28;20505;-58
2023/09/13 10:03:17;;;;;;;5.47;1.70;;;15.20;99.90;;;;;;5112426;27;20055;-59
2023/09/13 10:05:59;;;;;;;6.82;1.42;;;15.30;99.90;;;;;;5098945;28;20071;-58
2023/09/13 10:08:39;;;;;;;7.13;1.85;;;15.30;99.90;;;;;;5111546;27;20110;-58
2023/09/13 10:11:08;;;;;;;9.20;1.63;;;15.40;99.90;;;;;;5125139;27;20105;-59
2023/09/13 10:13:37;;;;;;;7.35;1.30;;;15.50;99.90;;;;;;5115484;27;20062;-59
2023/09/13 10:16:07;;;;;;;4.37;1.70;;;15.80;99.90;;;;;;5106889;27;20395;-59
2023/09/13 10:18:43;;;;;;;6.35;1.48;;;15.90;99.90;;;;;;5109676;28;20051;-58
2023/09/13 10:21:14;;;;;;;5.82;1.40;;;16.20;99.90;;;;;;5099534;27;20044;-59
2023/09/13 10:23:45;;;;;;;4.97;1.70;;;16.30;99.90;;;;;;5104920;28;20046;-60
2023/09/13 10:26:16;;;;;;;5.60;1.90;;;16.40;99.90;;;;;;5110033;28;20051;-59
2023/09/13 10:28:49;;;;;;;7.88;1.88;;;16.40;99.90;;;;;;5116631;27;20414;-59
2023/09/13 10:31:19;;;;;;;8.60;1.95;;;16.40;99.90;;;;;;5110129;28;20040;-59
2023/09/13 10:33:52;;;;;;;7.03;1.55;;;16.40;99.90;;;;;;5109577;28;20491;-58
2023/09/13 10:36:30;;;;;;;7.53;2.08;;;16.30;99.90;;;;;;5108345;27;20568;-59
2023/09/13 10:39:08;;;;;;;8.60;1.70;;;16.30;99.90;;;;;;5110019;28;20446;-59
2023/09/13 10:41:46;;;;;;;6.40;1.77;;;16.30;99.90;;;;;;5109940;28;20051;-60
2023/09/13 10:44:15;;;;;;;6.10;2.30;;;16.50;99.90;;;;;;5105606;27;20047;-59
2023/09/13 10:46:43;;;;;;;6.00;2.08;;;16.60;99.90;;;;;;5127604;27;20039;-60
2023/09/13 10:49:11;;;;;;;6.03;1.88;;;16.90;99.90;;;;;;5126905;27;20051;-59
2023/09/13 10:51:41;;;;;;;6.07;2.10;;;17.20;99.90;;;;;;5103860;27;20040;-59
2023/09/13 10:54:09;;;;;;;6.53;1.90;;;17.40;99.90;;;;;;5106405;28;20047;-59
2023/09/13 10:56:37;;;;;;;5.45;1.50;;;17.70;99.90;;;;;;5094652;27;20052;-59
2023/09/13 10:59:05;;;;;;;5.53;1.50;;;17.90;99.90;;;;;;5112623;27;20043;-59
2023/09/13 11:01:35;;;;;;;5.85;1.90;;;18.00;99.90;;;;;;5108156;28;20484;-58
2023/09/13 11:04:04;;;;;;;14.02;2.05;;;18.10;99.90;;;;;;5108894;28;20589;-58
2023/09/13 11:06:33;;;;;;;7.15;1.90;;;18.30;99.90;;;;;;5101241;27;20043;-59
2023/09/13 11:09:30;;;;;;;9.40;2.00;;;18.40;99.90;;;;;;5104845;28;20035;-59
2023/09/13 11:11:58;;;;;;;6.22;1.70;;;18.60;99.90;;;;;;5109441;28;20043;-58
2023/09/13 11:14:29;;;;;;;3.10;1.70;;;18.70;99.90;;;;;;5105617;27;20514;-59
2023/09/13 11:17:09;;;;;;;6.43;2.40;;;18.80;99.90;;;;;;5108813;28;20050;-59
2023/09/13 11:19:37;;;;;;;10.52;2.42;;;18.90;99.90;;;;;;5089872;28;20043;-58
2023/09/13 11:22:06;;;;;;;7.07;2.15;;;19.10;99.90;;;;;;5095393;27;20078;-59
2023/09/13 11:24:38;;;;;;;6.70;1.95;;;19.20;99.90;;;;;;5112824;27;20067;-59
2023/09/13 11:27:26;;;;;;;5.90;2.05;;;19.40;99.90;;;;;;5113496;27;20065;-59
2023/09/13 11:29:59;;;;;;;5.95;2.00;;;19.50;99.90;;;;;;5106525;28;20047;-59
2023/09/13 11:32:30;;;;;;;4.03;2.35;;;19.70;99.90;;;;;;5109135;27;20703;-58
2023/09/13 11:34:59;;;;;;;5.43;2.20;;;19.90;99.90;;;;;;5128014;27;20402;-59
2023/09/13 11:37:29;;;;;;;5.70;2.03;;;20.20;99.90;;;;;;5098958;27;20048;-59
2023/09/13 11:40:12;;;;;;;7.28;1.90;;;20.40;99.90;;;;;;5120807;27;20280;-59
2023/09/13 11:42:41;;;;;;;7.57;2.15;;;20.60;99.90;;;;;;5099040;27;20051;-61
2023/09/13 11:45:12;;;;;;;7.68;2.25;;;20.70;99.90;;;;;;5104060;28;20604;-60
2023/09/13 11:48:02;;;;;;;4.15;2.10;;;20.80;99.90;;;;;;5105264;28;20215;-59
2023/09/13 11:50:42;;;;;;;5.38;1.98;;;20.80;99.90;;;;;;5108414;28;20047;-59
2023/09/13 11:53:19;;;;;;;5.63;2.50;;;20.50;99.90;;;;;;5102216;27;20051;-62
2023/09/13 11:55:54;;;;;;;7.13;2.15;;;20.20;99.90;;;;;;5129272;27;20043;-61
2023/09/13 11:58:36;;;;;;;7.60;2.38;;;20.00;99.90;;;;;;5112018;27;20031;-60
2023/09/13 12:01:24;;;;;;;4.40;2.00;;;19.70;99.90;;;;;;5108255;28;20063;-59
2023/09/13 12:04:04;;;;;;;8.02;2.15;;;19.90;99.90;;;;;;5118314;27;20058;-61
2023/09/13 12:06:43;;;;;;;5.78;1.60;;;20.20;99.90;;;;;;5113457;28;20074;-60
2023/09/13 12:09:19;;;;;;;9.57;2.10;;;20.50;99.90;;;;;;5105635;28;20040;-60
2023/09/13 12:11:54;;;;;;;7.00;2.20;;;21.00;99.90;;;;;;5107998;28;20043;-60
2023/09/13 12:14:27;;;;;;;5.75;2.10;;;21.40;99.90;;;;;;5107060;28;20475;-61
2023/09/13 12:17:14;;;;;;;7.00;1.77;;;21.80;99.90;;;;;;5104505;28;20044;-62
2023/09/13 12:19:46;;;;;;;10.23;2.55;;;22.10;99.90;;;;;;5108280;28;20052;-61
2023/09/13 12:22:18;;;;;;;6.90;2.05;;;22.50;99.90;;;;;;5094629;28;20044;-61
2023/09/13 12:24:52;;;;;;;5.63;2.25;;;22.80;99.70;;;;;;5104798;28;20213;-60
2023/09/13 12:27:23;;;;;;;7.38;2.20;;;23.20;99.20;;;;;;5113370;28;20398;-64
2023/09/13 12:29:51;;;;;;;5.70;2.35;;;23.50;97.90;;;;;;5107773;28;20040;-62
2023/09/13 12:32:19;;;;;;;6.68;2.25;;;23.50;96.20;;;;;;5108669;28;20600;-61
2023/09/13 12:34:47;;;;;;;6.70;2.13;;;23.40;95.40;;;;;;5122478;28;20047;-61
2023/09/13 12:37:15;;;;;;;6.05;2.20;;;23.60;96.20;;;;;;5104439;28;20044;-62
2023/09/13 12:39:43;;;;;;;6.55;2.65;;;23.80;95.50;;;;;;5094977;27;20044;-61
2023/09/13 12:42:11;;;;;;;6.88;2.30;;;23.60;95.00;;;;;;5094430;27;20044;-61
2023/09/13 12:44:39;;;;;;;5.68;2.40;;;23.30;94.70;;;;;;5119642;27;20036;-61
2023/09/13 12:47:07;;;;;;;6.18;2.88;;;23.10;96.30;;;;;;5105417;27;20062;-60
2023/09/13 12:49:38;;;;;;;5.78;1.95;;;23.20;94.80;;;;;;5091706;28;20391;-60
2023/09/13 12:52:07;;;;;;;6.25;2.00;;;23.40;94.70;;;;;;5092349;28;20812;-62
2023/09/13 12:54:35;;;;;;;6.30;2.38;;;23.30;94.30;;;;;;5111663;27;20064;-61
2023/09/13 12:57:03;;;;;;;5.35;2.10;;;22.90;94.70;;;;;;5112265;27;20046;-60
2023/09/13 12:59:41;;;;;;;6.13;2.20;;;22.30;94.40;;;;;;5111254;28;20511;-60
2023/09/13 13:02:16;;;;;;;4.38;1.95;;;21.80;95.20;;;;;;5111536;28;20039;-61
2023/09/13 13:04:44;;;;;;;6.75;2.30;;;21.30;95.60;;;;;;5121735;27;20047;-61
2023/09/13 13:07:27;;;;;;;6.65;1.83;;;21.00;96.70;;;;;;5107105;28;20051;-61